Time;durP1;ratioP1;P1;durP2;ratioP2;P2;SDS_P1;SDS_P2;PMS_P1;PMS_P2;Temp;Humidity;BMP_temperature;BMP_pressure;BME280_temperature;BME280_humidity;BME280_pressure;Samples;Min_cycle;Max_cycle;Signal;HPM_P1;HPM_P2
2024/02/16 00:00:58;;;;;;;8.13;5.20;;;;;;;15.57;82.52;101289.72;5035173;27;97175;-69
2024/02/16 00:03:24;;;;;;;8.70;4.97;;;;;;;15.70;82.85;101288.22;5028648;27;97498;-69
2024/02/16 00:05:51;;;;;;;6.70;5.15;;;;;;;15.54;83.34;101288.09;5028993;27;98955;-68
2024/02/16 00:08:18;;;;;;;6.22;5.45;;;;;;;15.69;82.43;101294.47;5030394;27;99023;-68
2024/02/16 00:10:46;;;;;;;9.82;6.18;;;;;;;15.50;83.20;101290.00;5034916;27;97941;-70
2024/02/16 00:13:12;;;;;;;9.00;5.60;;;;;;;15.41;83.01;101282.47;5024567;27;98537;-68
2024/02/16 00:15:39;;;;;;;7.03;5.40;;;;;;;15.46;83.09;101291.09;5033748;27;98924;-70
2024/02/16 00:18:05;;;;;;;9.10;5.90;;;;;;;15.39;83.11;101284.31;5031381;27;98746;-68
2024/02/16 00:20:32;;;;;;;8.48;5.97;;;;;;;15.41;83.07;101286.91;5026692;27;97745;-69
2024/02/16 00:22:59;;;;;;;10.60;6.47;;;;;;;15.38;82.95;101295.91;5029565;27;97688;-69
2024/02/16 00:25:25;;;;;;;12.95;6.63;;;;;;;15.29;83.21;101287.50;5029459;27;99922;-68
2024/02/16 00:27:53;;;;;;;8.75;6.05;;;;;;;15.11;84.05;101290.06;5028792;27;99488;-68
2024/02/16 00:30:20;;;;;;;7.90;6.53;;;;;;;15.07;83.74;101283.16;5022731;27;96993;-68
2024/02/16 00:32:46;;;;;;;10.30;7.28;;;;;;;15.26;83.42;101277.84;5032240;27;97327;-68
2024/02/16 00:35:13;;;;;;;11.50;7.20;;;;;;;15.26;83.20;101279.63;5031448;27;101522;-69
2024/02/16 00:37:39;;;;;;;12.43;7.28;;;;;;;15.22;82.98;101284.25;5031895;27;99038;-68
2024/02/16 00:40:07;;;;;;;12.35;8.07;;;;;;;15.37;82.73;101278.19;5023635;27;98399;-68
2024/02/16 00:42:34;;;;;;;10.45;7.68;;;;;;;15.32;82.50;101282.00;5031015;27;97255;-69
2024/02/16 00:45:02;;;;;;;11.60;7.63;;;;;;;15.31;82.01;101286.47;5024534;27;99146;-67
2024/02/16 00:47:28;;;;;;;11.15;8.55;;;;;;;15.14;82.51;101273.94;5028186;27;98793;-69
2024/02/16 00:49:55;;;;;;;13.85;8.70;;;;;;;15.36;81.94;101276.47;5025429;27;97187;-68
2024/02/16 00:52:22;;;;;;;11.88;8.45;;;;;;;15.36;81.73;101273.78;5030760;27;98411;-69
2024/02/16 00:54:48;;;;;;;13.27;9.23;;;;;;;15.35;81.83;101271.22;5025682;27;99246;-69
2024/02/16 00:57:15;;;;;;;12.23;8.73;;;;;;;15.26;82.16;101276.97;5025204;27;99299;-69
2024/02/16 00:59:42;;;;;;;14.07;10.05;;;;;;;15.22;82.46;101270.94;5027796;27;96993;-70
2024/02/16 01:02:10;;;;;;;16.13;9.80;;;;;;;15.16;82.34;101273.88;5030503;27;97591;-69
2024/02/16 01:04:36;;;;;;;15.18;9.15;;;;;;;15.30;81.99;101268.75;5021630;27;99107;-69
2024/02/16 01:07:03;;;;;;;14.43;9.55;;;;;;;15.21;81.79;101269.22;5030943;27;98912;-69
2024/02/16 01:09:29;;;;;;;18.25;9.65;;;;;;;15.32;81.77;101266.03;5028808;27;97257;-69
2024/02/16 01:11:55;;;;;;;16.95;10.18;;;;;;;15.18;82.00;101264.00;5026300;27;97077;-69
2024/02/16 01:14:22;;;;;;;15.52;10.40;;;;;;;15.09;81.83;101256.47;5023867;27;99233;-69
2024/02/16 01:16:49;;;;;;;18.15;10.68;;;;;;;15.19;82.40;101249.78;5032872;27;97720;-69
2024/02/16 01:19:17;;;;;;;15.18;10.75;;;;;;;15.05;81.91;101252.19;5023457;27;96838;-68
2024/02/16 01:21:47;;;;;;;14.80;11.27;;;;;;;15.29;81.18;101258.22;5021933;27;98038;-68
2024/02/16 01:24:13;;;;;;;16.85;11.23;;;;;;;15.13;81.46;101247.41;5021079;27;97901;-68
2024/02/16 01:26:39;;;;;;;18.63;12.35;;;;;;;15.14;81.66;101251.78;5026544;27;98746;-69
2024/02/16 01:29:06;;;;;;;16.13;11.77;;;;;;;15.10;81.63;101251.06;5034393;27;96845;-69
2024/02/16 01:31:33;;;;;;;15.50;10.38;;;;;;;15.16;81.43;101245.44;5028770;27;96739;-69
2024/02/16 01:33:59;;;;;;;20.15;11.90;;;;;;;15.01;81.73;101246.19;5028306;27;98158;-68
2024/02/16 01:36:27;;;;;;;16.67;11.43;;;;;;;14.97;82.32;101247.22;5030409;27;98643;-69
2024/02/16 01:38:53;;;;;;;17.83;11.77;;;;;;;15.06;81.63;101238.84;5037659;27;96758;-70
2024/02/16 01:41:20;;;;;;;17.92;12.30;;;;;;;15.04;81.52;101245.16;5035782;27;97262;-69
2024/02/16 01:43:46;;;;;;;20.58;12.20;;;;;;;15.03;81.67;101243.44;5023368;27;98619;-69
2024/02/16 01:46:12;;;;;;;17.67;11.95;;;;;;;14.98;81.88;101240.97;5030339;27;98724;-70
2024/02/16 01:48:40;;;;;;;19.83;11.55;;;;;;;14.93;81.56;101242.13;5030239;27;97509;-71
2024/02/16 01:51:08;;;;;;;14.38;10.60;;;;;;;14.94;81.86;101235.88;5031511;27;97314;-69
2024/02/16 01:53:37;;;;;;;15.88;11.35;;;;;;;14.77;82.03;101237.50;5025411;27;98353;-69
2024/02/16 01:56:04;;;;;;;14.02;10.88;;;;;;;14.73;82.33;101224.41;5030379;27;99173;-70
2024/02/16 01:58:31;;;;;;;15.60;10.82;;;;;;;14.84;81.82;101221.25;5031880;27;97267;-69
2024/02/16 02:00:57;;;;;;;16.30;11.70;;;;;;;14.72;82.27;101212.91;5027919;27;97240;-69
2024/02/16 02:03:24;;;;;;;17.17;11.13;;;;;;;14.79;81.99;101217.94;5024163;27;101118;-69
2024/02/16 02:05:51;;;;;;;16.30;11.38;;;;;;;14.77;82.29;101211.84;5030803;27;99480;-68
2024/02/16 02:08:17;;;;;;;17.75;11.27;;;;;;;14.61;82.59;101204.56;5033446;27;97301;-69
2024/02/16 02:10:45;;;;;;;19.33;11.73;;;;;;;14.66;82.56;101209.66;5025627;27;97653;-67
2024/02/16 02:13:12;;;;;;;18.95;12.50;;;;;;;14.47;82.76;101208.75;5027963;27;98510;-68
2024/02/16 02:15:38;;;;;;;18.05;11.88;;;;;;;14.56;82.42;101201.25;5033796;27;98772;-67
2024/02/16 02:18:05;;;;;;;21.00;12.90;;;;;;;14.39;82.43;101193.13;5038082;27;97226;-68
2024/02/16 02:20:31;;;;;;;21.63;13.45;;;;;;;14.47;82.65;101193.66;5031330;27;97233;-67
2024/02/16 02:22:59;;;;;;;18.42;12.88;;;;;;;14.35;83.38;101184.41;5028914;27;99105;-67
2024/02/16 02:25:26;;;;;;;18.98;13.38;;;;;;;14.33;83.54;101180.94;5026125;27;98971;-68
2024/02/16 02:27:53;;;;;;;20.38;13.15;;;;;;;14.17;83.72;101187.00;5030791;27;96850;-68
2024/02/16 02:30:20;;;;;;;17.85;12.82;;;;;;;14.22;84.03;101175.25;5026772;27;97504;-68
2024/02/16 02:32:47;;;;;;;18.55;12.80;;;;;;;14.01;84.86;101173.50;5031612;27;99001;-68
2024/02/16 02:35:14;;;;;;;19.83;13.60;;;;;;;14.07;84.65;101170.56;5025394;27;97498;-67
2024/02/16 02:37:40;;;;;;;23.48;13.50;;;;;;;14.18;84.13;101168.31;5029101;27;98841;-68
2024/02/16 02:40:10;;;;;;;17.60;13.70;;;;;;;14.05;84.55;101164.47;5027032;27;97171;-68
2024/02/16 02:42:36;;;;;;;20.85;14.18;;;;;;;14.12;84.20;101170.38;5022889;27;98809;-68
2024/02/16 02:45:03;;;;;;;21.92;14.50;;;;;;;13.93;85.01;101165.84;5028329;27;101421;-68
2024/02/16 02:47:29;;;;;;;21.00;13.98;;;;;;;13.93;85.06;101162.34;5030100;27;97085;-70
2024/02/16 02:49:56;;;;;;;20.48;15.00;;;;;;;13.97;84.87;101158.63;5021966;27;96969;-69
2024/02/16 02:52:22;;;;;;;20.42;14.27;;;;;;;13.92;84.76;101160.59;5029233;27;98791;-69
2024/02/16 02:54:49;;;;;;;21.20;14.35;;;;;;;13.82;85.32;101153.97;5024808;27;99250;-68
2024/02/16 02:57:16;;;;;;;25.70;14.45;;;;;;;13.87;85.07;101152.84;5027271;27;96960;-68
2024/02/16 02:59:43;;;;;;;21.83;14.32;;;;;;;14.02;84.53;101156.63;5028853;27;98987;-68
2024/02/16 03:02:09;;;;;;;20.55;14.38;;;;;;;14.02;84.28;101153.13;5038528;27;98926;-68
2024/02/16 03:04:36;;;;;;;26.08;15.52;;;;;;;14.10;84.39;101159.84;5027231;27;99098;-68
2024/02/16 03:07:02;;;;;;;18.98;14.70;;;;;;;14.00;84.51;101155.81;5035431;27;97516;-68
2024/02/16 03:09:29;;;;;;;22.95;14.20;;;;;;;14.14;84.00;101155.22;5032597;27;97259;-68
2024/02/16 03:11:55;;;;;;;25.45;16.38;;;;;;;14.19;83.38;101156.75;5026875;27;99615;-68
2024/02/16 03:14:23;;;;;;;23.70;15.98;;;;;;;14.09;83.84;101152.78;5028011;27;98632;-68
2024/02/16 03:16:50;;;;;;;22.83;16.15;;;;;;;14.08;83.41;101160.81;5031090;27;97459;-69
2024/02/16 03:19:16;;;;;;;24.58;14.65;;;;;;;14.17;83.24;101160.44;5032444;27;97210;-69
2024/02/16 03:21:43;;;;;;;22.50;14.60;;;;;;;14.26;82.78;101160.88;5027995;27;98906;-68
2024/02/16 03:24:10;;;;;;;23.40;15.50;;;;;;;14.29;82.71;101163.41;5024744;27;98846;-68
2024/02/16 03:26:35;;;;;;;25.38;15.60;;;;;;;14.11;82.47;101160.69;5031661;27;97154;-69
2024/02/16 03:29:01;;;;;;;;;;;;;;;14.24;82.61;101151.25;5027531;27;97124;-68
2024/02/16 03:31:29;;;;;;;22.40;14.60;;;;;;;14.11;83.02;101156.22;5025252;27;98066;-68
2024/02/16 03:33:56;;;;;;;23.08;15.10;;;;;;;14.00;83.26;101149.66;5025981;27;98824;-69
2024/02/16 03:36:22;;;;;;;22.45;13.90;;;;;;;14.13;82.97;101158.81;5023801;27;97234;-69
2024/02/16 03:38:50;;;;;;;24.00;14.52;;;;;;;13.98;83.20;101151.53;5026483;27;96926;-69
2024/02/16 03:41:20;;;;;;;22.80;15.30;;;;;;;14.30;82.05;101143.88;5027751;27;98978;-69
2024/02/16 03:43:47;;;;;;;22.15;15.27;;;;;;;13.94;82.97;101135.72;5024553;27;99024;-69
2024/02/16 03:46:13;;;;;;;21.77;14.30;;;;;;;14.11;82.67;101142.09;5029875;27;96836;-69
2024/02/16 03:48:41;;;;;;;25.33;16.05;;;;;;;14.23;82.74;101145.06;5030663;27;97411;-69
2024/02/16 03:51:07;;;;;;;22.67;15.02;;;;;;;14.15;82.13;101146.34;5030298;27;99443;-70
2024/02/16 03:53:34;;;;;;;23.17;14.77;;;;;;;14.18;82.15;101141.72;5029470;27;98850;-69
2024/02/16 03:56:00;;;;;;;24.85;15.60;;;;;;;14.10;82.27;101138.56;5024184;27;96838;-69
2024/02/16 03:58:27;;;;;;;20.77;14.23;;;;;;;13.95;82.80;101134.78;5027559;27;96780;-70
2024/02/16 04:00:53;;;;;;;24.67;15.38;;;;;;;13.92;83.09;101131.38;5027916;27;98833;-69
2024/02/16 04:03:20;;;;;;;23.13;15.32;;;;;;;13.88;83.51;101130.66;5037007;27;98810;-70
2024/02/16 04:05:47;;;;;;;23.08;14.73;;;;;;;13.98;82.95;101126.66;5029767;27;97734;-69
2024/02/16 04:08:14;;;;;;;27.40;14.48;;;;;;;13.86;83.33;101129.84;5026123;27;97123;-69
2024/02/16 04:10:40;;;;;;;21.92;15.43;;;;;;;13.84;83.68;101131.72;5025693;27;99055;-69
2024/02/16 04:13:07;;;;;;;23.40;15.13;;;;;;;13.96;83.06;101131.19;5023975;27;97597;-69
2024/02/16 04:15:33;;;;;;;23.15;15.35;;;;;;;13.94;83.00;101127.75;5027140;27;97478;-69
2024/02/16 04:17:59;;;;;;;24.23;15.25;;;;;;;14.09;82.58;101133.31;5030023;27;97562;-68
2024/02/16 04:20:26;;;;;;;23.27;15.10;;;;;;;14.29;81.83;101131.50;5035095;27;102175;-68
2024/02/16 04:22:53;;;;;;;22.05;14.82;;;;;;;14.07;82.17;101127.19;5024381;27;99131;-68
2024/02/16 04:25:20;;;;;;;24.55;15.07;;;;;;;14.08;82.20;101124.47;5031130;27;98993;-69
2024/02/16 04:27:46;;;;;;;22.17;14.55;;;;;;;14.13;81.91;101125.13;5025234;27;97898;-69
2024/02/16 04:30:12;;;;;;;25.50;14.18;;;;;;;14.06;82.12;101123.69;5030879;27;101154;-68
2024/02/16 04:32:39;;;;;;;21.48;14.40;;;;;;;14.00;82.62;101118.63;5025723;27;99000;-69
2024/02/16 04:35:06;;;;;;;22.17;14.20;;;;;;;14.10;82.14;101104.03;5031832;27;96761;-68
2024/02/16 04:37:32;;;;;;;22.08;14.80;;;;;;;14.07;82.01;101109.47;5028778;27;98679;-68
2024/02/16 04:40:00;;;;;;;20.80;14.73;;;;;;;14.08;82.01;101118.31;5032212;27;98837;-69
2024/02/16 04:42:26;;;;;;;21.90;14.50;;;;;;;14.13;81.76;101108.31;5026310;27;99038;-68
2024/02/16 04:44:52;;;;;;;20.70;14.48;;;;;;;14.13;81.70;101111.84;5027522;27;96851;-69
2024/02/16 04:47:19;;;;;;;21.10;13.93;;;;;;;14.12;82.15;101106.59;5028595;27;96889;-68
2024/02/16 04:49:45;;;;;;;20.75;13.73;;;;;;;14.01;82.21;101101.75;5028425;27;101769;-67
2024/02/16 04:52:11;;;;;;;23.42;14.60;;;;;;;14.07;81.86;101103.28;5028937;27;98841;-68
2024/02/16 04:54:40;;;;;;;22.08;13.73;;;;;;;14.00;82.27;101083.22;5027100;27;96816;-68
2024/02/16 04:57:08;;;;;;;25.70;14.85;;;;;;;13.89;82.63;101092.53;5026817;27;97280;-67
2024/02/16 04:59:34;;;;;;;19.65;13.95;;;;;;;14.00;81.99;101094.72;5024955;27;99422;-67
2024/02/16 05:02:00;;;;;;;18.67;12.75;;;;;;;14.13;81.65;101090.59;5034801;27;99358;-68
2024/02/16 05:04:27;;;;;;;25.45;14.13;;;;;;;13.96;82.13;101099.31;5023502;27;96886;-68
2024/02/16 05:06:57;;;;;;;20.88;13.57;;;;;;;13.99;82.00;101098.31;5030484;27;97768;-68
2024/02/16 05:09:24;;;;;;;17.88;13.05;;;;;;;13.99;82.19;101095.66;5025514;27;100441;-69
2024/02/16 05:11:51;;;;;;;18.00;12.57;;;;;;;13.87;82.35;101102.38;5022477;27;99236;-68
2024/02/16 05:14:19;;;;;;;21.90;13.52;;;;;;;13.76;82.80;101098.44;5029734;27;97144;-68
2024/02/16 05:16:45;;;;;;;21.20;12.98;;;;;;;13.84;82.54;101088.38;5032202;27;97548;-68
2024/02/16 05:19:12;;;;;;;22.63;13.50;;;;;;;13.78;82.64;101091.28;5025733;27;98955;-70
2024/02/16 05:21:38;;;;;;;22.60;13.55;;;;;;;13.84;82.90;101094.53;5026760;27;98705;-69
2024/02/16 05:24:05;;;;;;;17.73;12.32;;;;;;;13.70;83.11;101088.97;5030834;27;97200;-70
2024/02/16 05:26:32;;;;;;;19.77;13.48;;;;;;;13.73;83.18;101083.50;5029841;27;96970;-70
2024/02/16 05:28:58;;;;;;;20.75;13.35;;;;;;;13.61;83.92;101080.50;5022931;27;99501;-69
2024/02/16 05:31:26;;;;;;;19.77;12.77;;;;;;;13.66;83.67;101078.50;5024318;27;99444;-70
2024/02/16 05:33:52;;;;;;;20.88;12.48;;;;;;;13.52;84.32;101076.47;5023681;27;97559;-70
2024/02/16 05:36:20;;;;;;;21.50;12.57;;;;;;;13.32;85.51;101063.19;5024571;27;96849;-66
2024/02/16 05:38:46;;;;;;;20.23;12.43;;;;;;;13.48;84.85;101061.59;5024186;27;101785;-68
2024/02/16 05:41:13;;;;;;;20.30;12.32;;;;;;;13.46;84.69;101055.47;5025811;27;98862;-68
2024/02/16 05:43:39;;;;;;;21.95;13.10;;;;;;;13.35;85.00;101049.75;5025084;27;97570;-68
2024/02/16 05:46:06;;;;;;;22.20;12.20;;;;;;;13.60;84.20;101055.75;5024433;27;99101;-69
2024/02/16 05:48:37;;;;;;;20.20;13.05;;;;;;;13.46;84.49;101059.00;5021576;27;102452;-67
2024/02/16 05:51:05;;;;;;;21.20;12.15;;;;;;;13.68;83.63;101061.59;5026658;27;99148;-68
2024/02/16 05:53:31;;;;;;;17.50;12.15;;;;;;;13.59;84.05;101056.66;5031795;27;97269;-67
2024/02/16 05:55:58;;;;;;;19.33;12.52;;;;;;;13.50;84.51;101060.59;5024237;27;98450;-67
2024/02/16 05:58:24;;;;;;;20.13;11.85;;;;;;;13.39;84.53;101060.16;5026015;27;99259;-69
2024/02/16 06:00:51;;;;;;;18.60;11.85;;;;;;;13.35;84.79;101065.69;5022642;27;101064;-68
2024/02/16 06:03:18;;;;;;;17.73;11.50;;;;;;;13.48;84.48;101064.25;5029730;27;96789;-68
2024/02/16 06:05:45;;;;;;;16.70;11.68;;;;;;;13.59;83.83;101061.97;5021774;27;96933;-69
2024/02/16 06:08:12;;;;;;;21.63;12.50;;;;;;;13.56;83.74;101060.34;5016461;27;102101;-67
2024/02/16 06:10:38;;;;;;;18.90;11.65;;;;;;;13.56;84.23;101049.72;5020255;27;99093;-68
2024/02/16 06:13:06;;;;;;;17.23;11.70;;;;;;;13.58;84.15;101049.66;5032400;27;96960;-68
2024/02/16 06:15:33;;;;;;;21.40;12.15;;;;;;;13.54;84.28;101046.25;5030085;27;97664;-68
2024/02/16 06:18:01;;;;;;;21.35;12.23;;;;;;;13.49;84.08;101040.28;5028474;27;101802;-68
2024/02/16 06:20:28;;;;;;;17.77;11.32;;;;;;;13.54;84.34;101042.72;5028787;27;99440;-68
2024/02/16 06:22:55;;;;;;;17.23;11.27;;;;;;;13.45;84.54;101048.47;5024755;27;96840;-68
2024/02/16 06:25:21;;;;;;;16.65;11.30;;;;;;;13.48;84.29;101051.84;5027362;27;97272;-68
2024/02/16 06:27:48;;;;;;;19.13;11.57;;;;;;;13.48;84.71;101046.53;5019025;27;98826;-68
2024/02/16 06:30:14;;;;;;;18.10;11.27;;;;;;;13.28;85.42;101046.50;5032942;27;98825;-69
2024/02/16 06:32:41;;;;;;;19.35;11.65;;;;;;;13.29;85.31;101042.06;5030260;27;96791;-67
2024/02/16 06:35:09;;;;;;;18.00;10.63;;;;;;;13.15;86.04;101038.19;5026783;27;97203;-68
2024/02/16 06:37:37;;;;;;;18.00;10.43;;;;;;;13.31;85.61;101050.81;5031268;27;99125;-68
2024/02/16 06:40:06;;;;;;;17.25;10.93;;;;;;;13.37;85.15;101061.19;5035710;27;102215;-68
2024/02/16 06:42:33;;;;;;;20.70;11.65;;;;;;;13.45;84.54;101070.56;5026832;27;96897;-69
2024/02/16 06:45:00;;;;;;;17.58;10.70;;;;;;;13.54;84.40;101072.81;5022773;27;97448;-68
2024/02/16 06:47:26;;;;;;;15.73;10.93;;;;;;;13.61;84.29;101076.06;5028298;27;99982;-69
2024/02/16 06:49:53;;;;;;;14.73;10.32;;;;;;;13.69;83.46;101073.94;5025526;27;100514;-69
2024/02/16 06:52:20;;;;;;;19.25;11.27;;;;;;;13.74;83.19;101069.28;5030814;27;97356;-69
2024/02/16 06:54:47;;;;;;;17.08;10.52;;;;;;;13.54;83.65;101071.94;5023934;27;99492;-67
2024/02/16 06:57:14;;;;;;;23.02;11.80;;;;;;;13.60;83.45;101061.06;5025354;27;99471;-68
2024/02/16 06:59:41;;;;;;;17.63;11.57;;;;;;;13.67;83.31;101067.84;5022238;27;98118;-68
2024/02/16 07:02:09;;;;;;;22.38;11.85;;;;;;;13.71;83.34;101064.13;5023645;27;99384;-68
2024/02/16 07:04:35;;;;;;;17.48;11.48;;;;;;;13.85;82.49;101064.38;5021525;27;98727;-68
2024/02/16 07:07:01;;;;;;;18.88;11.18;;;;;;;13.85;82.49;101063.50;5022657;27;99254;-69
2024/02/16 07:09:28;;;;;;;16.42;10.68;;;;;;;13.97;81.90;101073.63;5038507;27;98944;-70
2024/02/16 07:11:54;;;;;;;16.48;10.05;;;;;;;13.89;81.71;101065.97;5029387;27;97324;-70
2024/02/16 07:14:22;;;;;;;17.63;11.20;;;;;;;13.88;81.88;101074.00;5039606;27;97172;-70
2024/02/16 07:16:48;;;;;;;15.80;10.45;;;;;;;14.00;81.58;101069.94;5031507;27;98906;-70
2024/02/16 07:19:15;;;;;;;18.63;10.38;;;;;;;14.07;81.43;101069.59;5036201;27;99141;-70
2024/02/16 07:21:41;;;;;;;16.38;11.40;;;;;;;14.00;81.69;101069.94;5029150;27;97493;-71
2024/02/16 07:24:08;;;;;;;19.67;11.40;;;;;;;14.18;81.01;101064.66;5029221;27;97774;-71
2024/02/16 07:26:35;;;;;;;23.60;11.65;;;;;;;14.33;80.18;101065.75;5032761;27;101379;-70
2024/02/16 07:29:02;;;;;;;17.45;11.02;;;;;;;14.17;79.90;101068.28;5029993;27;99224;-69
2024/02/16 07:31:33;;;;;;;16.60;11.38;;;;;;;13.98;81.19;101059.38;5028008;27;97159;-69
2024/02/16 07:33:59;;;;;;;17.63;10.40;;;;;;;14.05;81.17;101052.84;5031929;27;97133;-71
2024/02/16 07:36:26;;;;;;;16.70;10.73;;;;;;;13.82;82.13;101056.56;5033058;27;99278;-70
2024/02/16 07:38:52;;;;;;;20.73;10.95;;;;;;;13.91;82.23;101049.97;5029052;27;98274;-70
2024/02/16 07:41:19;;;;;;;18.65;11.20;;;;;;;14.10;81.21;101052.69;5022630;27;97213;-70
2024/02/16 07:43:45;;;;;;;20.27;11.55;;;;;;;13.96;81.80;101048.84;5027463;27;98250;-70
2024/02/16 07:46:12;;;;;;;16.15;10.73;;;;;;;14.16;81.36;101047.06;5026999;27;99035;-69
2024/02/16 07:48:41;;;;;;;18.83;11.18;;;;;;;14.12;80.83;101056.09;5027846;27;98980;-69
2024/02/16 07:51:07;;;;;;;18.75;10.98;;;;;;;14.42;80.16;101049.44;5026288;27;98348;-69
2024/02/16 07:53:34;;;;;;;16.88;11.60;;;;;;;14.62;79.67;101048.50;5029237;27;97872;-69
2024/02/16 07:56:00;;;;;;;20.08;11.98;;;;;;;14.82;78.44;101037.78;5017283;27;97827;-69
2024/02/16 07:58:27;;;;;;;19.02;11.13;;;;;;;14.99;77.72;101044.91;5027744;27;98453;-69
2024/02/16 08:00:54;;;;;;;17.30;9.65;;;;;;;14.94;77.08;101036.31;5022768;27;97688;-69
2024/02/16 08:03:20;;;;;;;15.57;10.18;;;;;;;15.07;76.73;101043.63;5030708;27;96980;-69
2024/02/16 08:05:48;;;;;;;18.25;10.95;;;;;;;15.35;76.29;101048.44;5027512;27;98371;-68
2024/02/16 08:08:15;;;;;;;15.82;10.32;;;;;;;15.43;75.54;101048.88;5026161;27;99466;-69
2024/02/16 08:10:41;;;;;;;17.08;10.82;;;;;;;15.27;75.63;101050.63;5024411;27;97385;-68
2024/02/16 08:13:07;;;;;;;18.60;10.68;;;;;;;15.19;75.60;101058.13;5031409;27;99073;-70
2024/02/16 08:15:34;;;;;;;18.02;10.20;;;;;;;15.24;75.58;101056.06;5023577;27;98945;-69
2024/02/16 08:18:00;;;;;;;19.58;10.45;;;;;;;15.50;75.04;101054.75;5033873;27;101414;-69
2024/02/16 08:20:27;;;;;;;16.33;10.07;;;;;;;15.55;74.46;101066.09;5023346;27;96932;-69
2024/02/16 08:22:55;;;;;;;16.23;9.68;;;;;;;15.83;73.98;101060.19;5020725;27;97153;-67
2024/02/16 08:25:22;;;;;;;16.55;10.95;;;;;;;16.07;72.86;101068.72;5026579;27;99110;-69
2024/02/16 08:27:49;;;;;;;16.50;10.82;;;;;;;16.02;72.86;101063.59;5032894;27;100274;-70
2024/02/16 08:30:15;;;;;;;16.83;10.00;;;;;;;16.21;72.05;101064.34;5031667;27;97260;-70
2024/02/16 08:32:42;;;;;;;17.80;9.90;;;;;;;16.24;71.40;101066.84;5033556;27;97371;-70
2024/02/16 08:35:10;;;;;;;15.63;9.90;;;;;;;16.20;71.28;101064.44;5027319;27;98949;-69
2024/02/16 08:37:36;;;;;;;16.80;9.75;;;;;;;16.22;71.87;101055.41;5029465;27;98427;-69
2024/02/16 08:40:05;;;;;;;14.65;9.63;;;;;;;16.42;70.97;101058.78;5025269;27;97168;-69
2024/02/16 08:42:32;;;;;;;20.25;9.50;;;;;;;16.12;71.79;101056.84;5029904;27;98193;-69
2024/02/16 08:45:00;;;;;;;14.15;8.68;;;;;;;16.29;70.93;101050.59;5029009;27;97895;-69
2024/02/16 08:47:26;;;;;;;12.07;8.45;;;;;;;16.21;71.18;101059.00;5033671;27;99331;-70
2024/02/16 08:49:53;;;;;;;14.43;9.30;;;;;;;16.27;70.87;101061.38;5034375;27;98052;-68
2024/02/16 08:52:19;;;;;;;16.00;9.75;;;;;;;16.21;71.07;101048.34;5032148;27;97540;-69
2024/02/16 08:54:46;;;;;;;15.70;8.02;;;;;;;16.47;70.24;101051.44;5021986;27;98908;-70
2024/02/16 08:57:13;;;;;;;11.38;7.68;;;;;;;16.46;70.08;101049.69;5027147;27;97236;-70
2024/02/16 08:59:40;;;;;;;11.73;7.85;;;;;;;16.44;69.76;101036.44;5029206;27;97878;-70
2024/02/16 09:02:07;;;;;;;13.52;7.53;;;;;;;16.27;70.14;101034.72;5026168;27;97335;-70
2024/02/16 09:04:33;;;;;;;9.63;7.03;;;;;;;16.21;70.45;101035.00;5027358;27;99246;-69
2024/02/16 09:07:00;;;;;;;13.93;7.00;;;;;;;16.37;70.03;101034.19;5031254;27;101741;-70
2024/02/16 09:09:28;;;;;;;11.52;6.95;;;;;;;16.31;69.95;101030.06;5026339;27;97337;-71
2024/02/16 09:11:54;;;;;;;10.82;6.50;;;;;;;16.31;70.19;101027.38;5032397;27;97023;-71
2024/02/16 09:14:22;;;;;;;10.38;6.90;;;;;;;16.14;70.52;101039.00;5026005;27;97556;-70
2024/02/16 09:16:51;;;;;;;12.20;7.18;;;;;;;16.32;70.03;101037.13;5027618;27;99825;-70
2024/02/16 09:19:17;;;;;;;14.18;7.40;;;;;;;16.49;69.47;101039.72;5030492;27;96704;-70
2024/02/16 09:21:44;;;;;;;23.38;8.15;;;;;;;16.84;68.68;101037.78;5029422;27;96795;-71
2024/02/16 09:24:14;;;;;;;14.45;7.32;;;;;;;16.77;68.03;101041.75;5026420;27;99054;-70
2024/02/16 09:26:40;;;;;;;9.80;7.03;;;;;;;17.11;67.64;101033.53;5025043;27;101780;-70
2024/02/16 09:29:07;;;;;;;7.97;6.00;;;;;;;17.17;66.88;101026.97;5027449;27;96900;-70
2024/02/16 09:31:35;;;;;;;9.18;6.43;;;;;;;17.03;67.28;101025.09;5033623;27;98108;-70
2024/02/16 09:34:02;;;;;;;10.77;6.50;;;;;;;17.16;66.23;101030.59;5028295;27;99018;-70
2024/02/16 09:36:29;;;;;;;11.30;6.20;;;;;;;17.31;66.58;101023.50;5014644;27;101969;-69
2024/02/16 09:38:55;;;;;;;12.80;6.28;;;;;;;17.80;65.31;101014.25;5031034;27;96870;-69
2024/02/16 09:41:21;;;;;;;10.65;5.65;;;;;;;17.84;64.12;101021.16;5028939;27;96815;-70
2024/02/16 09:43:48;;;;;;;11.93;5.70;;;;;;;18.02;63.36;101027.19;5030666;27;99133;-69
2024/02/16 09:46:16;;;;;;;13.38;5.90;;;;;;;18.12;62.83;101022.09;5024551;27;98985;-71
2024/02/16 09:48:48;;;;;;;7.60;5.20;;;;;;;18.30;62.34;101027.19;5032385;27;96874;-70
2024/02/16 09:51:15;;;;;;;10.60;5.13;;;;;;;18.19;62.09;101036.81;5030929;27;97360;-70
2024/02/16 09:53:43;;;;;;;8.88;4.85;;;;;;;18.05;62.52;101031.50;5026949;27;99297;-70
2024/02/16 09:56:09;;;;;;;12.43;5.40;;;;;;;18.04;62.72;101041.31;5034229;27;98861;-70
2024/02/16 09:58:36;;;;;;;7.15;5.00;;;;;;;18.13;61.69;101039.88;5029600;27;97086;-70
2024/02/16 10:01:03;;;;;;;7.75;4.47;;;;;;;18.25;61.58;101047.13;5025586;27;97772;-70
2024/02/16 10:03:32;;;;;;;7.80;4.38;;;;;;;18.07;61.92;101046.47;5027205;27;98846;-70
2024/02/16 10:06:07;;;;;;;10.02;4.82;;;;;;;18.06;61.52;101039.41;5029113;27;100769;-69
2024/02/16 10:08:34;;;;;;;9.57;4.70;;;;;;;17.69;62.45;101035.44;5032653;27;97850;-70
2024/02/16 10:11:02;;;;;;;8.00;4.50;;;;;;;17.86;62.23;101043.28;5030490;27;97567;-71
2024/02/16 10:13:29;;;;;;;7.63;4.13;;;;;;;17.69;62.97;101032.78;5025482;27;99148;-70
2024/02/16 10:16:05;;;;;;;7.97;4.82;;;;;;;17.81;62.40;101037.38;5023512;27;102759;-70
2024/02/16 10:18:32;;;;;;;9.13;4.80;;;;;;;17.75;62.25;101040.41;5027974;27;96791;-70
2024/02/16 10:20:58;;;;;;;5.65;4.35;;;;;;;17.80;62.59;101026.78;5028941;27;97476;-69
2024/02/16 10:23:26;;;;;;;7.18;4.65;;;;;;;18.00;61.44;101036.25;5025837;27;98023;-75
2024/02/16 10:25:53;;;;;;;5.35;3.95;;;;;;;17.96;61.16;101032.91;5034424;27;99660;-76
2024/02/16 10:28:26;;;;;;;8.05;4.30;;;;;;;18.13;61.00;101045.22;5029184;27;98169;-76
2024/02/16 10:30:53;;;;;;;6.80;4.20;;;;;;;18.11;60.18;101037.31;5032320;27;97917;-76
2024/02/16 10:33:20;;;;;;;6.20;4.13;;;;;;;18.10;60.67;101034.75;5032688;27;99000;-77
2024/02/16 10:35:48;;;;;;;5.72;4.53;;;;;;;18.07;60.57;101040.25;5032702;27;101776;-77
2024/02/16 10:38:15;;;;;;;7.95;4.10;;;;;;;18.37;60.08;101040.19;5038889;27;97400;-76
2024/02/16 10:40:44;;;;;;;9.85;5.35;;;;;;;18.53;59.60;101023.03;5036077;27;96998;-76
2024/02/16 10:43:14;;;;;;;10.77;4.32;;;;;;;18.55;59.53;101033.66;5034093;27;100538;-77
2024/02/16 10:45:40;;;;;;;5.38;3.85;;;;;;;18.21;59.96;101034.91;5030516;27;98003;-76
2024/02/16 10:48:08;;;;;;;7.70;3.95;;;;;;;18.09;60.75;101038.34;5032001;27;96773;-75
2024/02/16 10:50:36;;;;;;;10.95;4.05;;;;;;;18.16;60.50;101024.53;5032694;27;97083;-76
2024/02/16 10:53:09;;;;;;;7.43;4.60;;;;;;;18.26;60.10;101030.13;5033358;27;99236;-76
2024/02/16 10:55:35;;;;;;;8.07;4.20;;;;;;;18.18;59.72;101027.09;5031975;27;97655;-77
2024/02/16 10:58:04;;;;;;;9.43;4.60;;;;;;;18.31;59.83;101020.84;5031248;27;98361;-77
2024/02/16 11:00:30;;;;;;;7.05;4.55;;;;;;;18.22;60.31;101017.91;5033922;27;97184;-76
2024/02/16 11:02:59;;;;;;;10.00;4.63;;;;;;;18.29;60.31;101021.94;5029711;27;97816;-77
2024/02/16 11:05:36;;;;;;;6.65;3.88;;;;;;;18.68;59.74;101016.75;5032417;27;99055;-76
2024/02/16 11:08:03;;;;;;;10.95;4.90;;;;;;;18.64;59.46;101009.84;5034153;27;96821;-76
2024/02/16 11:10:30;;;;;;;10.27;4.60;;;;;;;18.43;59.36;101005.88;5028848;27;97110;-76